Time;durP1;ratioP1;P1;durP2;ratioP2;P2;SDS_P1;SDS_P2;PMS_P1;PMS_P2;Temp;Humidity;BMP_temperature;BMP_pressure;BME280_temperature;BME280_humidity;BME280_pressure;Samples;Min_cycle;Max_cycle;Signal;HPM_P1;HPM_P2
2022/07/11 00:01:03;;;;;;;4.18;1.55;;;;;;;;;;4982341;28;20130;-91
2022/07/11 00:03:28;;;;;;;1.92;1.48;;;;;;;;;;4985183;28;20417;-90
2022/07/11 00:05:54;;;;;;;3.72;1.63;;;;;;;;;;4987510;28;20050;-90
2022/07/11 00:08:19;;;;;;;2.90;1.52;;;;;;;;;;4990168;28;20027;-89
2022/07/11 00:10:46;;;;;;;2.13;1.55;;;;;;;;;;4982913;28;20052;-90
2022/07/11 00:13:12;;;;;;;2.45;1.70;;;;;;;;;;4986802;28;20034;-90
2022/07/11 00:15:37;;;;;;;3.50;1.40;;;;;;;;;;4990362;28;20034;-90
2022/07/11 00:18:03;;;;;;;2.85;1.63;;;;;;;;;;4990933;28;20038;-90
2022/07/11 00:20:28;;;;;;;2.08;1.50;;;;;;;;;;4983276;28;20027;-90
2022/07/11 00:22:54;;;;;;;2.85;1.70;;;;;;;;;;4988339;28;20034;-91
2022/07/11 00:25:20;;;;;;;2.63;1.60;;;;;;;;;;4986163;28;20042;-91
2022/07/11 00:27:45;;;;;;;2.63;1.70;;;;;;;;;;4975899;28;20054;-91
2022/07/11 00:30:11;;;;;;;2.53;1.75;;;;;;;;;;4986416;28;20532;-90
2022/07/11 00:32:36;;;;;;;3.42;2.00;;;;;;;;;;4986821;28;20421;-89
2022/07/11 00:35:01;;;;;;;4.15;2.00;;;;;;;;;;4985983;28;20033;-90
2022/07/11 00:37:27;;;;;;;3.00;1.67;;;;;;;;;;4987680;28;20042;-90
2022/07/11 00:39:52;;;;;;;2.78;1.88;;;;;;;;;;4991028;28;20121;-91
2022/07/11 00:42:18;;;;;;;2.33;1.65;;;;;;;;;;4988439;28;20031;-91
2022/07/11 00:44:43;;;;;;;2.13;1.55;;;;;;;;;;4985972;28;20030;-91
2022/07/11 00:47:08;;;;;;;2.45;1.70;;;;;;;;;;4982409;28;20705;-91
2022/07/11 00:49:34;;;;;;;4.15;1.70;;;;;;;;;;4988272;28;20121;-91
2022/07/11 00:51:59;;;;;;;4.20;2.33;;;;;;;;;;4989476;28;20125;-91
2022/07/11 00:54:27;;;;;;;3.50;2.08;;;;;;;;;;4989733;28;20040;-92
2022/07/11 00:56:52;;;;;;;3.47;2.38;;;;;;;;;;4989184;28;20042;-91
2022/07/11 00:59:19;;;;;;;3.20;2.05;;;;;;;;;;4987285;28;20053;-90
2022/07/11 01:01:44;;;;;;;3.80;2.60;;;;;;;;;;4988019;28;20046;-91
2022/07/11 01:04:10;;;;;;;3.80;2.40;;;;;;;;;;4982756;28;20038;-89
2022/07/11 01:06:35;;;;;;;4.88;2.33;;;;;;;;;;4988199;28;20034;-90
2022/07/11 01:09:00;;;;;;;2.75;2.05;;;;;;;;;;4982959;28;20125;-91
2022/07/11 01:11:26;;;;;;;3.30;1.65;;;;;;;;;;4987919;28;20030;-90
2022/07/11 01:13:52;;;;;;;3.05;1.80;;;;;;;;;;4983518;28;20374;-90
2022/07/11 01:16:22;;;;;;;2.72;1.85;;;;;;;;;;4986031;28;20076;-90
2022/07/11 01:18:54;;;;;;;3.03;2.25;;;;;;;;;;4998938;28;20045;-89
2022/07/11 01:21:23;;;;;;;2.50;1.70;;;;;;;;;;4993612;28;20085;-89
2022/07/11 01:23:49;;;;;;;7.07;2.00;;;;;;;;;;4993869;28;20052;-89
2022/07/11 01:26:19;;;;;;;3.17;1.90;;;;;;;;;;4993578;28;20030;-89
2022/07/11 01:28:44;;;;;;;3.05;2.00;;;;;;;;;;4992512;28;20047;-89
2022/07/11 01:31:11;;;;;;;3.13;2.20;;;;;;;;;;4987157;28;20035;-88
2022/07/11 01:33:36;;;;;;;3.42;1.90;;;;;;;;;;4988884;28;20117;-88
2022/07/11 01:36:02;;;;;;;3.97;2.20;;;;;;;;;;4985558;28;20138;-89
2022/07/11 01:38:28;;;;;;;4.05;2.20;;;;;;;;;;4986726;28;20046;-88
2022/07/11 01:40:54;;;;;;;3.42;2.33;;;;;;;;;;4991855;28;20525;-87
2022/07/11 01:43:19;;;;;;;5.10;2.28;;;;;;;;;;4991096;28;20038;-88
2022/07/11 01:45:44;;;;;;;3.17;2.58;;;;;;;;;;4991032;28;20046;-88
2022/07/11 01:48:10;;;;;;;2.63;2.22;;;;;;;;;;4986386;28;20045;-88
2022/07/11 01:50:35;;;;;;;3.53;2.40;;;;;;;;;;4992995;28;20064;-88
2022/07/11 01:53:01;;;;;;;3.92;1.92;;;;;;;;;;4990958;28;20050;-87
2022/07/11 01:55:27;;;;;;;2.30;1.80;;;;;;;;;;4989322;28;20549;-87
2022/07/11 01:57:52;;;;;;;2.90;1.90;;;;;;;;;;4989384;28;20050;-87
2022/07/11 02:00:18;;;;;;;3.17;2.20;;;;;;;;;;4986662;28;20062;-87
2022/07/11 02:02:43;;;;;;;3.45;1.70;;;;;;;;;;4989401;28;20512;-88
2022/07/11 02:05:08;;;;;;;4.90;1.73;;;;;;;;;;4989328;28;20090;-87
2022/07/11 02:10:18;;;;;;;3.85;2.10;;;;;;;;;;4986993;28;20044;-88
2022/07/11 02:12:43;;;;;;;4.63;2.05;;;;;;;;;;4988039;28;20471;-88
2022/07/11 02:15:09;;;;;;;3.55;1.95;;;;;;;;;;4988319;28;20489;-87
2022/07/11 02:17:34;;;;;;;3.25;2.03;;;;;;;;;;4987620;28;20021;-88
2022/07/11 02:19:59;;;;;;;3.35;1.90;;;;;;;;;;4989326;28;20030;-88
2022/07/11 02:22:26;;;;;;;4.45;2.30;;;;;;;;;;4990591;28;20049;-88
2022/07/11 02:24:52;;;;;;;2.30;1.90;;;;;;;;;;4989927;28;20121;-88
2022/07/11 02:27:17;;;;;;;2.78;1.70;;;;;;;;;;4987249;28;20121;-88
2022/07/11 02:29:43;;;;;;;2.33;1.83;;;;;;;;;;5000391;28;20520;-87
2022/07/11 02:32:08;;;;;;;2.83;1.88;;;;;;;;;;4986441;28;20506;-87
2022/07/11 02:34:33;;;;;;;2.67;2.10;;;;;;;;;;5001558;28;20042;-88
2022/07/11 02:36:58;;;;;;;4.40;2.05;;;;;;;;;;4989287;28;20121;-88
2022/07/11 02:39:24;;;;;;;2.47;1.88;;;;;;;;;;4985434;28;20038;-88
2022/07/11 02:41:49;;;;;;;3.45;2.00;;;;;;;;;;4988986;28;20030;-88
2022/07/11 02:44:15;;;;;;;2.80;1.90;;;;;;;;;;4990986;28;20166;-88
2022/07/11 02:46:40;;;;;;;3.33;1.90;;;;;;;;;;4989103;28;20129;-87
2022/07/11 02:49:05;;;;;;;8.82;2.35;;;;;;;;;;5001137;28;20070;-87
2022/07/11 02:51:31;;;;;;;3.53;2.28;;;;;;;;;;4985926;28;20121;-87
2022/07/11 02:53:56;;;;;;;2.83;2.10;;;;;;;;;;4984970;28;20038;-87
2022/07/11 02:56:22;;;;;;;4.43;1.77;;;;;;;;;;4985531;28;20034;-87
2022/07/11 02:58:47;;;;;;;4.75;1.88;;;;;;;;;;4984424;28;20506;-86
2022/07/11 03:01:12;;;;;;;4.55;2.00;;;;;;;;;;4989024;28;20038;-88
2022/07/11 03:03:38;;;;;;;5.15;2.42;;;;;;;;;;4986968;28;20081;-87
2022/07/11 03:06:03;;;;;;;4.28;2.08;;;;;;;;;;4990021;28;20038;-88
2022/07/11 03:08:28;;;;;;;2.65;2.00;;;;;;;;;;4988740;28;20022;-87
2022/07/11 03:10:54;;;;;;;4.35;2.25;;;;;;;;;;4990032;28;20033;-88
2022/07/11 03:13:19;;;;;;;7.90;2.42;;;;;;;;;;4989900;28;20039;-87
2022/07/11 03:15:44;;;;;;;3.03;2.00;;;;;;;;;;4988451;28;20573;-87
2022/07/11 03:18:10;;;;;;;4.63;2.15;;;;;;;;;;4980728;28;20648;-87
2022/07/11 03:20:35;;;;;;;2.53;1.92;;;;;;;;;;4989766;28;20422;-87
2022/07/11 03:23:00;;;;;;;4.65;2.70;;;;;;;;;;4987847;28;20509;-87
2022/07/11 03:25:26;;;;;;;4.00;2.38;;;;;;;;;;4987392;28;20602;-87
2022/07/11 03:27:51;;;;;;;3.40;2.17;;;;;;;;;;4990714;28;20065;-87
2022/07/11 03:30:16;;;;;;;3.88;2.20;;;;;;;;;;4989616;28;20136;-88
2022/07/11 03:32:42;;;;;;;4.85;2.22;;;;;;;;;;4989384;28;20026;-87
2022/07/11 03:37:52;;;;;;;2.47;1.83;;;;;;;;;;4988670;28;20089;-87
2022/07/11 03:40:17;;;;;;;2.70;1.90;;;;;;;;;;4989528;28;20081;-86
2022/07/11 03:42:43;;;;;;;2.97;1.90;;;;;;;;;;4987564;28;20038;-87
2022/07/11 03:45:10;;;;;;;6.20;2.20;;;;;;;;;;4987252;28;20512;-87
2022/07/11 03:47:36;;;;;;;3.05;1.98;;;;;;;;;;4983696;28;20026;-86
2022/07/11 03:50:02;;;;;;;3.88;2.00;;;;;;;;;;4985091;28;20023;-87
2022/07/11 03:52:27;;;;;;;6.78;2.50;;;;;;;;;;4988285;28;20034;-87
2022/07/11 03:54:53;;;;;;;5.63;2.40;;;;;;;;;;4987323;28;20072;-87
2022/07/11 03:57:18;;;;;;;3.47;2.10;;;;;;;;;;4987934;28;20062;-87
2022/07/11 03:59:43;;;;;;;4.03;2.15;;;;;;;;;;4985368;28;20026;-87
2022/07/11 04:02:10;;;;;;;3.83;2.25;;;;;;;;;;4982431;28;20050;-87
2022/07/11 04:04:35;;;;;;;2.60;1.92;;;;;;;;;;4987290;28;20105;-86
2022/07/11 04:07:00;;;;;;;3.15;2.10;;;;;;;;;;4986803;28;20039;-86
2022/07/11 04:09:26;;;;;;;3.30;2.10;;;;;;;;;;4988515;28;20042;-86
2022/07/11 04:11:51;;;;;;;4.35;2.38;;;;;;;;;;4983707;28;20536;-86
2022/07/11 04:14:16;;;;;;;4.57;2.47;;;;;;;;;;4987414;28;20469;-86
2022/07/11 04:16:42;;;;;;;4.00;2.53;;;;;;;;;;4985583;28;20113;-87
2022/07/11 04:19:07;;;;;;;4.40;2.00;;;;;;;;;;4995130;28;20042;-87
2022/07/11 04:21:32;;;;;;;5.05;2.55;;;;;;;;;;4988311;28;20049;-87
2022/07/11 04:23:58;;;;;;;5.28;2.10;;;;;;;;;;4988269;28;20110;-87
2022/07/11 04:26:23;;;;;;;4.63;2.30;;;;;;;;;;4985993;28;20415;-87
2022/07/11 04:28:48;;;;;;;3.95;2.22;;;;;;;;;;4984546;28;20174;-87
2022/07/11 04:31:14;;;;;;;8.38;2.30;;;;;;;;;;4981415;28;20070;-87
2022/07/11 04:33:39;;;;;;;3.38;2.00;;;;;;;;;;4970533;28;20114;-88
2022/07/11 04:36:05;;;;;;;4.47;2.30;;;;;;;;;;4985533;28;20042;-87
2022/07/11 04:38:30;;;;;;;5.13;2.70;;;;;;;;;;4990525;28;20034;-88
2022/07/11 04:40:55;;;;;;;6.45;2.40;;;;;;;;;;4988657;28;20026;-88
2022/07/11 04:43:21;;;;;;;9.13;2.65;;;;;;;;;;4988651;28;20038;-90
2022/07/11 04:45:46;;;;;;;7.00;2.42;;;;;;;;;;4989297;28;20041;-89
2022/07/11 04:48:11;;;;;;;4.40;2.33;;;;;;;;;;4989587;28;20030;-89
2022/07/11 04:50:37;;;;;;;4.70;2.63;;;;;;;;;;4988944;28;20038;-91
2022/07/11 04:53:02;;;;;;;5.78;2.55;;;;;;;;;;4989480;28;20041;-92
2022/07/11 04:55:28;;;;;;;8.23;2.90;;;;;;;;;;4988440;28;20461;-92
2022/07/11 04:57:53;;;;;;;4.72;3.20;;;;;;;;;;4989417;28;20518;-92
2022/07/11 05:00:19;;;;;;;7.05;3.40;;;;;;;;;;4988884;28;20530;-93
2022/07/11 05:02:45;;;;;;;5.30;3.28;;;;;;;;;;4988690;28;20434;-92
2022/07/11 05:05:11;;;;;;;5.10;3.45;;;;;;;;;;4987421;28;20576;-93
2022/07/11 05:07:36;;;;;;;6.40;3.45;;;;;;;;;;4989578;28;20049;-94
2022/07/11 05:10:03;;;;;;;6.35;3.70;;;;;;;;;;4989052;28;20433;-94
2022/07/11 05:12:28;;;;;;;4.20;2.85;;;;;;;;;;4985859;28;20042;-95
2022/07/11 05:14:55;;;;;;;6.05;3.55;;;;;;;;;;4988427;28;20042;-95
2022/07/11 05:17:20;;;;;;;6.00;3.45;;;;;;;;;;4986905;28;20026;-95
2022/07/11 05:19:46;;;;;;;4.75;3.42;;;;;;;;;;4983508;28;20038;-95
2022/07/11 05:22:11;;;;;;;6.05;3.65;;;;;;;;;;4989491;28;20030;-93
2022/07/11 05:24:36;;;;;;;8.40;3.85;;;;;;;;;;4982676;28;20034;-92
2022/07/11 05:27:02;;;;;;;7.03;3.70;;;;;;;;;;4990798;28;20433;-95
2022/07/11 05:29:28;;;;;;;7.53;3.95;;;;;;;;;;4994144;28;20110;-96
2022/07/11 05:31:53;;;;;;;11.07;4.75;;;;;;;;;;4994979;28;20113;-94
2022/07/11 05:34:19;;;;;;;11.57;4.63;;;;;;;;;;4990275;28;20050;-95
2022/07/11 05:36:45;;;;;;;9.07;5.32;;;;;;;;;;4989451;28;20042;-94
2022/07/11 05:39:10;;;;;;;11.68;6.32;;;;;;;;;;4988952;28;20030;-93
2022/07/11 05:41:39;;;;;;;14.00;6.55;;;;;;;;;;4990250;28;20393;-93
2022/07/11 05:44:04;;;;;;;9.80;5.60;;;;;;;;;;4991942;28;20026;-92
2022/07/11 05:46:29;;;;;;;11.02;5.32;;;;;;;;;;4989928;28;20096;-91
2022/07/11 05:48:55;;;;;;;10.73;6.05;;;;;;;;;;4983470;28;20026;-89
2022/07/11 05:51:20;;;;;;;13.18;6.75;;;;;;;;;;4986568;28;20065;-89
2022/07/11 05:53:45;;;;;;;13.07;7.22;;;;;;;;;;4977730;28;20599;-86
2022/07/11 05:56:11;;;;;;;10.82;6.97;;;;;;;;;;4983851;28;20036;-88
2022/07/11 05:58:36;;;;;;;14.48;7.93;;;;;;;;;;4981778;28;20038;-87
2022/07/11 06:01:01;;;;;;;16.52;7.28;;;;;;;;;;4983732;28;20042;-89
2022/07/11 06:03:27;;;;;;;15.18;7.65;;;;;;;;;;4987134;28;20041;-89
2022/07/11 06:05:52;;;;;;;16.42;7.57;;;;;;;;;;4989200;28;20043;-88
2022/07/11 06:11:02;;;;;;;13.15;7.68;;;;;;;;;;4992398;28;20057;-87
2022/07/11 06:13:29;;;;;;;18.83;8.02;;;;;;;;;;4971434;28;20526;-85
2022/07/11 06:15:55;;;;;;;18.23;7.97;;;;;;;;;;4985424;28;20030;-86
2022/07/11 06:18:20;;;;;;;15.07;7.20;;;;;;;;;;4987395;28;20046;-87
2022/07/11 06:20:46;;;;;;;15.32;7.18;;;;;;;;;;4992342;28;20401;-87
2022/07/11 06:23:11;;;;;;;14.40;7.03;;;;;;;;;;4987939;28;20498;-87
2022/07/11 06:25:37;;;;;;;14.70;7.72;;;;;;;;;;4989753;28;20042;-86
2022/07/11 06:28:04;;;;;;;15.77;8.10;;;;;;;;;;4988043;28;20042;-86
2022/07/11 06:30:30;;;;;;;14.85;8.02;;;;;;;;;;4988070;28;20034;-86
2022/07/11 06:32:57;;;;;;;17.58;8.10;;;;;;;;;;4989774;28;20033;-86
2022/07/11 06:35:23;;;;;;;19.50;9.68;;;;;;;;;;4987925;28;20034;-86
2022/07/11 06:37:48;;;;;;;14.88;8.40;;;;;;;;;;4989579;28;20621;-86
2022/07/11 06:40:17;;;;;;;20.17;8.88;;;;;;;;;;4991392;28;20100;-85
2022/07/11 06:42:42;;;;;;;16.98;7.82;;;;;;;;;;4987266;28;20035;-86
2022/07/11 06:45:08;;;;;;;17.30;9.50;;;;;;;;;;4981070;28;20460;-85
2022/07/11 06:47:33;;;;;;;21.88;9.70;;;;;;;;;;4989652;28;20076;-83
2022/07/11 06:49:58;;;;;;;18.88;9.27;;;;;;;;;;4987472;28;20129;-85
2022/07/11 06:52:24;;;;;;;19.17;9.75;;;;;;;;;;4989709;28;20038;-86
2022/07/11 06:54:49;;;;;;;24.77;10.43;;;;;;;;;;4989648;28;20042;-85
2022/07/11 06:57:14;;;;;;;22.45;10.82;;;;;;;;;;4986678;28;20029;-85
2022/07/11 06:59:40;;;;;;;23.13;11.05;;;;;;;;;;4989067;28;20023;-85
2022/07/11 07:02:05;;;;;;;21.58;11.65;;;;;;;;;;4984455;28;20030;-84
2022/07/11 07:04:31;;;;;;;18.30;10.88;;;;;;;;;;4984549;28;20022;-86
2022/07/11 07:06:56;;;;;;;19.02;10.10;;;;;;;;;;4982907;28;20034;-84
2022/07/11 07:09:21;;;;;;;21.05;10.10;;;;;;;;;;4982657;28;20049;-87
2022/07/11 07:11:47;;;;;;;24.77;13.18;;;;;;;;;;5000361;28;20037;-88
2022/07/11 07:14:12;;;;;;;21.42;13.00;;;;;;;;;;4981661;28;20581;-85
2022/07/11 07:16:39;;;;;;;24.60;12.13;;;;;;;;;;4982422;28;20042;-85
2022/07/11 07:19:04;;;;;;;24.13;11.23;;;;;;;;;;4985932;28;20541;-85
2022/07/11 07:21:30;;;;;;;18.73;10.43;;;;;;;;;;4985259;28;21276;-85
2022/07/11 07:23:55;;;;;;;21.15;10.05;;;;;;;;;;4986176;28;20054;-85
2022/07/11 07:26:21;;;;;;;19.42;9.80;;;;;;;;;;4983768;28;20042;-86
2022/07/11 07:28:46;;;;;;;21.15;10.77;;;;;;;;;;4990132;28;20097;-87
2022/07/11 07:31:11;;;;;;;20.15;10.68;;;;;;;;;;4985848;28;20125;-90
2022/07/11 07:33:37;;;;;;;23.08;9.70;;;;;;;;;;4984961;28;20041;-86
2022/07/11 07:36:03;;;;;;;21.27;10.65;;;;;;;;;;4983008;28;20053;-87
2022/07/11 07:38:28;;;;;;;21.98;10.52;;;;;;;;;;4985007;28;20026;-87
2022/07/11 07:40:54;;;;;;;18.83;9.20;;;;;;;;;;4986107;28;20054;-87
2022/07/11 07:43:20;;;;;;;18.88;8.68;;;;;;;;;;4987839;28;20039;-86
2022/07/11 07:45:45;;;;;;;16.83;8.52;;;;;;;;;;4988844;28;20046;-85
2022/07/11 07:48:10;;;;;;;16.65;8.43;;;;;;;;;;4986757;28;20062;-86
2022/07/11 07:50:36;;;;;;;15.30;8.23;;;;;;;;;;4983764;28;20023;-86
2022/07/11 07:53:01;;;;;;;12.13;7.03;;;;;;;;;;4999733;28;20416;-88
2022/07/11 07:55:26;;;;;;;13.68;7.65;;;;;;;;;;4990723;28;20034;-90
2022/07/11 07:57:52;;;;;;;11.90;7.53;;;;;;;;;;4987443;28;20433;-87
2022/07/11 08:03:06;;;;;;;11.90;6.00;;;;;;;;;;4990869;28;20077;-89
2022/07/11 08:05:32;;;;;;;9.18;4.43;;;;;;;;;;4981551;28;20061;-89
2022/07/11 08:07:58;;;;;;;10.70;5.40;;;;;;;;;;4985300;28;20093;-90
2022/07/11 08:10:23;;;;;;;12.07;6.53;;;;;;;;;;4985552;28;20046;-89
2022/07/11 08:12:48;;;;;;;12.85;6.25;;;;;;;;;;4983653;28;20081;-90
2022/07/11 08:15:14;;;;;;;8.93;5.30;;;;;;;;;;4984210;28;20038;-92
2022/07/11 08:17:41;;;;;;;9.90;5.57;;;;;;;;;;4987620;28;20545;-90
2022/07/11 08:20:07;;;;;;;10.18;5.03;;;;;;;;;;4994771;28;20040;-88
2022/07/11 08:22:33;;;;;;;6.70;4.57;;;;;;;;;;4985441;28;20034;-85
2022/07/11 08:24:59;;;;;;;9.13;4.95;;;;;;;;;;4987047;28;20045;-89
2022/07/11 08:27:24;;;;;;;6.78;4.40;;;;;;;;;;4989590;28;20089;-87
2022/07/11 08:29:49;;;;;;;6.55;4.05;;;;;;;;;;5002056;28;20464;-89
2022/07/11 08:32:15;;;;;;;6.72;3.95;;;;;;;;;;5000577;28;20030;-91
2022/07/11 08:34:40;;;;;;;8.02;4.30;;;;;;;;;;4985482;28;20034;-88
2022/07/11 08:37:05;;;;;;;5.00;3.03;;;;;;;;;;4986527;28;20038;-87
2022/07/11 08:39:31;;;;;;;6.25;3.50;;;;;;;;;;4975761;28;20090;-88
2022/07/11 08:41:57;;;;;;;8.32;3.25;;;;;;;;;;4987685;28;20022;-85
2022/07/11 08:44:24;;;;;;;6.72;3.03;;;;;;;;;;4989529;28;20041;-91
2022/07/11 08:46:52;;;;;;;6.43;3.55;;;;;;;;;;4987996;28;20034;-86
2022/07/11 08:49:18;;;;;;;6.45;3.80;;;;;;;;;;4985557;28;20042;-85
2022/07/11 08:51:47;;;;;;;6.97;3.85;;;;;;;;;;4987217;28;20060;-91
2022/07/11 08:54:13;;;;;;;4.68;2.80;;;;;;;;;;4988867;28;20031;-89
2022/07/11 08:56:41;;;;;;;5.30;2.70;;;;;;;;;;4985759;28;20132;-89
2022/07/11 08:59:08;;;;;;;5.72;3.55;;;;;;;;;;4981623;28;20035;-89
2022/07/11 09:01:37;;;;;;;6.72;3.25;;;;;;;;;;4988420;28;20046;-89
2022/07/11 09:04:02;;;;;;;6.28;3.20;;;;;;;;;;5004562;28;20042;-86
2022/07/11 09:06:29;;;;;;;5.07;2.88;;;;;;;;;;4987371;28;20525;-91
2022/07/11 09:08:59;;;;;;;6.30;3.13;;;;;;;;;;4987797;28;20032;-90
2022/07/11 09:11:25;;;;;;;5.35;2.70;;;;;;;;;;4988429;28;20038;-92
2022/07/11 09:13:50;;;;;;;7.55;3.63;;;;;;;;;;4984820;28;20066;-90
2022/07/11 09:16:17;;;;;;;6.20;3.22;;;;;;;;;;4987765;28;20124;-91
2022/07/11 09:18:42;;;;;;;4.50;3.03;;;;;;;;;;4986093;28;20081;-92
2022/07/11 09:26:51;;;;;;;5.63;3.65;;;;;;;;;;4993247;28;20512;-92
2022/07/11 09:29:21;;;;;;;6.28;2.97;;;;;;;;;;5002173;28;20074;-94
2022/07/11 09:31:47;;;;;;;5.20;3.10;;;;;;;;;;4999652;28;20129;-91
2022/07/11 09:34:19;;;;;;;6.45;3.22;;;;;;;;;;4993227;28;20077;-91
2022/07/11 09:36:46;;;;;;;5.47;3.55;;;;;;;;;;4985573;28;20042;-91
2022/07/11 09:39:16;;;;;;;8.77;3.30;;;;;;;;;;4996070;28;20058;-91
2022/07/11 09:41:43;;;;;;;5.10;3.10;;;;;;;;;;4991358;28;20022;-90
2022/07/11 09:44:13;;;;;;;8.90;3.08;;;;;;;;;;4994008;28;20036;-92
2022/07/11 09:46:40;;;;;;;5.00;2.70;;;;;;;;;;4994542;28;20042;-91
2022/07/11 09:49:07;;;;;;;5.63;2.97;;;;;;;;;;4993005;28;20644;-92
2022/07/11 09:51:36;;;;;;;8.70;2.58;;;;;;;;;;4995368;28;20030;-93
2022/07/11 09:54:04;;;;;;;5.28;2.60;;;;;;;;;;4994478;28;20076;-93
2022/07/11 09:56:43;;;;;;;3.70;2.20;;;;;;;;;;4996786;28;20394;-95
2022/07/11 09:59:11;;;;;;;4.22;2.60;;;;;;;;;;5008184;28;20044;-95
2022/07/11 10:01:37;;;;;;;3.70;2.00;;;;;;;;;;5015339;28;20121;-93
2022/07/11 10:04:07;;;;;;;3.33;2.30;;;;;;;;;;5008005;28;20038;-93
2022/07/11 10:06:35;;;;;;;4.15;2.40;;;;;;;;;;4988458;28;20138;-94
2022/07/11 10:09:01;;;;;;;9.23;4.00;;;;;;;;;;4981720;28;20050;-95
2022/07/11 10:11:27;;;;;;;4.28;2.47;;;;;;;;;;4980309;28;20130;-94
2022/07/11 10:13:53;;;;;;;4.95;2.30;;;;;;;;;;4979615;28;20135;-94
2022/07/11 10:16:37;;;;;;;4.13;2.30;;;;;;;;;;4990932;28;20105;-95
2022/07/11 10:19:10;;;;;;;6.35;2.80;;;;;;;;;;4989940;28;20897;-95
2022/07/11 10:21:41;;;;;;;;;;;;;;;;;;5003527;28;20639;-95
2022/07/11 10:24:32;;;;;;;6.10;2.53;;;;;;;;;;4990911;28;19917;-91
2022/07/11 10:27:07;;;;;;;2.83;2.15;;;;;;;;;;4986818;28;20030;-93
2022/07/11 10:29:38;;;;;;;4.80;2.03;;;;;;;;;;4992680;28;20025;-94
2022/07/11 10:32:11;;;;;;;3.58;2.47;;;;;;;;;;4990844;28;20392;-91
2022/07/11 10:34:36;;;;;;;;;;;;;;;;;;4990552;28;20070;-96
2022/07/11 10:37:07;;;;;;;2.90;1.70;;;;;;;;;;4981912;28;19918;-90
2022/07/11 10:39:37;;;;;;;3.05;1.80;;;;;;;;;;4995000;28;20069;-92
2022/07/11 10:42:04;;;;;;;2.22;1.70;;;;;;;;;;4994971;28;20473;-93
2022/07/11 10:44:54;;;;;;;2.95;1.60;;;;;;;;;;4994946;28;20038;-96
2022/07/11 10:47:44;;;;;;;3.17;1.83;;;;;;;;;;4996449;28;20042;-92
2022/07/11 10:50:21;;;;;;;2.80;1.77;;;;;;;;;;4985948;28;20382;-96
2022/07/11 10:52:49;;;;;;;3.15;1.70;;;;;;;;;;4997767;28;20034;-95
2022/07/11 10:55:30;;;;;;;4.65;1.70;;;;;;;;;;4989038;28;20044;-95
2022/07/11 10:58:07;;;;;;;2.88;1.60;;;;;;;;;;4989350;28;20038;-92
2022/07/11 11:00:33;;;;;;;4.68;1.60;;;;;;;;;;4992939;28;20026;-92
2022/07/11 11:03:04;;;;;;;1.85;1.50;;;;;;;;;;4994985;28;20141;-93
2022/07/11 11:05:55;;;;;;;5.38;1.70;;;;;;;;;;4994330;28;20054;-94
2022/07/11 11:08:36;;;;;;;2.80;1.55;;;;;;;;;;4993362;28;20047;-94
2022/07/11 11:11:19;;;;;;;4.10;1.63;;;;;;;;;;4986878;28;20078;-90
2022/07/11 11:13:45;;;;;;;2.85;1.50;;;;;;;;;;4975666;28;20086;-93
2022/07/11 11:16:24;;;;;;;2.38;1.70;;;;;;;;;;4974193;28;20063;-92
2022/07/11 11:18:50;;;;;;;3.45;1.63;;;;;;;;;;4974086;28;20046;-94
2022/07/11 11:21:20;;;;;;;4.68;1.60;;;;;;;;;;4991601;28;20018;-94
2022/07/11 11:24:02;;;;;;;2.90;1.58;;;;;;;;;;4993372;28;20034;-93
2022/07/11 11:26:51;;;;;;;2.92;1.38;;;;;;;;;;4990844;28;20034;-94
2022/07/11 11:29:25;;;;;;;2.42;1.75;;;;;;;;;;4993288;28;20043;-93
2022/07/11 11:31:52;;;;;;;2.83;1.60;;;;;;;;;;4995920;28;20094;-94
2022/07/11 11:34:18;;;;;;;3.42;1.55;;;;;;;;;;4993031;28;20041;-95
2022/07/11 11:36:44;;;;;;;4.82;2.10;;;;;;;;;;4992446;28;20038;-93
2022/07/11 11:39:09;;;;;;;1.90;1.70;;;;;;;;;;4991939;28;20026;-93
2022/07/11 11:41:35;;;;;;;2.00;1.50;;;;;;;;;;4994470;28;20073;-93
2022/07/11 11:44:02;;;;;;;2.53;1.92;;;;;;;;;;4992111;28;20045;-92
2022/07/11 11:46:29;;;;;;;4.45;1.80;;;;;;;;;;4992882;28;20026;-93
2022/07/11 11:48:58;;;;;;;3.42;2.00;;;;;;;;;;4989486;28;20038;-95
2022/07/11 11:51:26;;;;;;;1.80;1.50;;;;;;;;;;4986706;28;20045;-93
2022/07/11 11:53:57;;;;;;;2.42;1.65;;;;;;;;;;4979328;28;20146;-95
2022/07/11 11:56:32;;;;;;;3.17;1.65;;;;;;;;;;4977368;28;20303;-94
2022/07/11 11:58:59;;;;;;;1.70;1.60;;;;;;;;;;4986031;28;20038;-93
2022/07/11 12:01:27;;;;;;;3.80;1.40;;;;;;;;;;4981215;28;20043;-92
2022/07/11 12:03:58;;;;;;;2.00;1.75;;;;;;;;;;4983875;28;20061;-90
2022/07/11 12:06:26;;;;;;;2.85;1.60;;;;;;;;;;4986099;28;20077;-95
2022/07/11 12:09:04;;;;;;;2.75;1.30;;;;;;;;;;5008040;28;20032;-92
2022/07/11 12:11:30;;;;;;;1.98;1.55;;;;;;;;;;5005951;28;20038;-93
2022/07/11 12:14:02;;;;;;;2.22;1.80;;;;;;;;;;4988546;28;20042;-93
2022/07/11 12:16:43;;;;;;;2.37;1.80;;;;;;;;;;4985369;28;20062;-95
2022/07/11 12:19:14;;;;;;;2.30;1.90;;;;;;;;;;4992838;28;20081;-94
2022/07/11 12:21:41;;;;;;;2.25;1.73;;;;;;;;;;4995839;28;20038;-93
2022/07/11 12:24:10;;;;;;;3.10;1.60;;;;;;;;;;4992998;28;20036;-94
2022/07/11 12:26:38;;;;;;;2.25;1.73;;;;;;;;;;4987738;28;20026;-96
2022/07/11 12:29:19;;;;;;;2.28;1.70;;;;;;;;;;4974716;28;20027;-92
2022/07/11 12:31:47;;;;;;;3.30;2.10;;;;;;;;;;4974025;28;20544;-92
2022/07/11 12:34:15;;;;;;;3.83;1.65;;;;;;;;;;4974397;28;20043;-92
2022/07/11 12:36:40;;;;;;;2.05;1.80;;;;;;;;;;4977258;28;20053;-94
2022/07/11 12:39:06;;;;;;;2.83;1.60;;;;;;;;;;4978257;28;20565;-96
2022/07/11 12:41:33;;;;;;;1.75;1.55;;;;;;;;;;4993984;28;20054;-95
2022/07/11 12:46:43;;;;;;;3.53;2.30;;;;;;;;;;4991792;28;20096;-87
2022/07/11 12:49:11;;;;;;;3.55;2.60;;;;;;;;;;4990459;28;20035;-95
2022/07/11 12:51:42;;;;;;;3.20;2.42;;;;;;;;;;4990995;28;20053;-88
2022/07/11 12:54:15;;;;;;;3.28;2.20;;;;;;;;;;4989163;28;20037;-94
2022/07/11 12:56:54;;;;;;;2.55;2.00;;;;;;;;;;4990577;28;20072;-92
2022/07/11 12:59:22;;;;;;;5.30;2.17;;;;;;;;;;4992989;28;20042;-90
2022/07/11 13:02:08;;;;;;;3.20;2.20;;;;;;;;;;4989928;28;20122;-96
2022/07/11 13:04:37;;;;;;;2.42;1.88;;;;;;;;;;4986410;28;20042;-93
2022/07/11 13:10:05;;;;;;;3.85;2.15;;;;;;;;;;4988182;28;20040;-92
2022/07/11 13:12:30;;;;;;;2.70;2.03;;;;;;;;;;4991331;28;20137;-95
2022/07/11 13:15:09;;;;;;;3.25;2.20;;;;;;;;;;4994378;28;20050;-95
2022/07/11 13:17:39;;;;;;;3.10;1.95;;;;;;;;;;4991188;28;20618;-94
2022/07/11 13:20:13;;;;;;;2.28;2.05;;;;;;;;;;4994719;28;20631;-96
2022/07/11 13:22:39;;;;;;;3.88;2.30;;;;;;;;;;4991857;28;20042;-92
2022/07/11 13:25:06;;;;;;;3.25;1.98;;;;;;;;;;4998044;28;20528;-92
2022/07/11 13:27:32;;;;;;;3.20;2.08;;;;;;;;;;4995893;28;20053;-94
2022/07/11 13:29:57;;;;;;;2.60;2.10;;;;;;;;;;5008101;28;20481;-95
2022/07/11 13:32:23;;;;;;;2.80;2.30;;;;;;;;;;4990752;28;20038;-96
2022/07/11 13:34:48;;;;;;;4.20;2.13;;;;;;;;;;4995163;28;20041;-94
2022/07/11 13:37:15;;;;;;;2.30;1.90;;;;;;;;;;4994710;28;20031;-94
2022/07/11 13:39:40;;;;;;;2.17;1.85;;;;;;;;;;5000020;28;20039;-95
2022/07/11 13:42:06;;;;;;;2.17;1.90;;;;;;;;;;5012125;28;20125;-94
2022/07/11 13:44:31;;;;;;;2.00;1.80;;;;;;;;;;4993651;28;20037;-92
2022/07/11 13:46:57;;;;;;;2.05;1.83;;;;;;;;;;4997005;28;20030;-95
2022/07/11 13:49:23;;;;;;;2.25;1.85;;;;;;;;;;4992245;28;20041;-89
2022/07/11 13:51:48;;;;;;;1.77;1.67;;;;;;;;;;4994525;28;20042;-89
2022/07/11 13:54:14;;;;;;;3.08;1.88;;;;;;;;;;4992051;28;20374;-95
2022/07/11 13:56:39;;;;;;;2.88;1.90;;;;;;;;;;4993507;28;20018;-92
2022/07/11 13:59:04;;;;;;;7.15;1.88;;;;;;;;;;5001479;28;20042;-92
2022/07/11 14:01:30;;;;;;;2.25;2.05;;;;;;;;;;4998188;28;20180;-94
2022/07/11 14:03:57;;;;;;;1.85;1.65;;;;;;;;;;4994724;28;20472;-90
2022/07/11 14:06:22;;;;;;;2.03;1.80;;;;;;;;;;4994298;28;20571;-91
2022/07/11 14:08:47;;;;;;;2.92;1.85;;;;;;;;;;4991092;28;20026;-90
2022/07/11 14:11:13;;;;;;;2.35;1.70;;;;;;;;;;4988645;28;20046;-89
2022/07/11 14:13:38;;;;;;;1.80;1.70;;;;;;;;;;4991431;28;20042;-95
2022/07/11 14:16:06;;;;;;;1.50;1.40;;;;;;;;;;4990956;28;20030;-96
2022/07/11 14:18:32;;;;;;;2.33;1.95;;;;;;;;;;4993884;28;20097;-94
2022/07/11 14:20:57;;;;;;;2.30;2.10;;;;;;;;;;4995771;28;20034;-91
2022/07/11 14:23:24;;;;;;;2.85;1.80;;;;;;;;;;5014752;28;20039;-95
2022/07/11 14:25:51;;;;;;;1.90;1.80;;;;;;;;;;4986184;28;20125;-89
2022/07/11 14:28:16;;;;;;;4.40;1.80;;;;;;;;;;4993382;28;20063;-93
2022/07/11 14:30:43;;;;;;;2.97;2.08;;;;;;;;;;4992789;28;20030;-90
2022/07/11 14:33:09;;;;;;;5.88;2.03;;;;;;;;;;4993427;28;20033;-90
2022/07/11 14:35:34;;;;;;;2.72;2.10;;;;;;;;;;4994303;28;20018;-94
2022/07/11 14:38:00;;;;;;;5.32;2.10;;;;;;;;;;4992898;28;20038;-88
2022/07/11 14:40:25;;;;;;;3.28;2.30;;;;;;;;;;4993548;28;20043;-92
2022/07/11 14:42:51;;;;;;;2.58;1.92;;;;;;;;;;4994478;28;20034;-90
2022/07/11 14:45:17;;;;;;;2.10;1.80;;;;;;;;;;4993922;28;20014;-91
2022/07/11 14:47:42;;;;;;;3.30;1.80;;;;;;;;;;4992649;28;20023;-91
2022/07/11 14:50:08;;;;;;;2.30;1.83;;;;;;;;;;4989101;28;20038;-87
2022/07/11 14:52:34;;;;;;;1.80;1.70;;;;;;;;;;4985681;28;20038;-90
2022/07/11 14:55:00;;;;;;;2.00;1.80;;;;;;;;;;4987689;28;20077;-92
2022/07/11 14:57:25;;;;;;;1.70;1.60;;;;;;;;;;4992114;28;20049;-87
2022/07/11 14:59:51;;;;;;;2.00;1.80;;;;;;;;;;4992160;28;20033;-92
2022/07/11 15:03:37;;;;;;;2.83;2.60;;;;;;;;;;4992873;28;20391;-92